Time;durP1;ratioP1;P1;durP2;ratioP2;P2;SDS_P1;SDS_P2;PMS_P1;PMS_P2;Temp;Humidity;BMP_temperature;BMP_pressure;BME280_temperature;BME280_humidity;BME280_pressure;Samples;Min_cycle;Max_cycle;Signal;HPM_P1;HPM_P2
2023/12/30 00:02:23;;;;;;;8.05;1.98;;;;;;;;;;4989391;28;20058;-68
2023/12/30 00:04:50;;;;;;;9.85;1.33;;;;;;;;;;4977012;28;20058;-68
2023/12/30 00:07:18;;;;;;;12.27;1.17;;;;;;;;;;4992363;28;20053;-68
2023/12/30 00:09:45;;;;;;;16.38;1.20;;;;;;;;;;4986039;28;20050;-69
2023/12/30 00:12:12;;;;;;;13.25;1.38;;;;;;;;;;4982924;28;20053;-68
2023/12/30 00:14:39;;;;;;;10.55;1.65;;;;;;;;;;4991788;28;20520;-68
2023/12/30 00:17:10;;;;;;;14.10;1.60;;;;;;;;;;4976930;28;20042;-68
2023/12/30 00:19:42;;;;;;;14.18;1.25;;;;;;;;;;4988596;28;20537;-67
2023/12/30 00:22:09;;;;;;;11.00;1.38;;;;;;;;;;4976557;28;20065;-68
2023/12/30 00:24:36;;;;;;;8.75;1.20;;;;;;;;;;4982439;28;20047;-68
2023/12/30 00:27:04;;;;;;;11.75;1.20;;;;;;;;;;4974222;28;20058;-68
2023/12/30 00:29:31;;;;;;;5.18;0.80;;;;;;;;;;4991097;28;20050;-67
2023/12/30 00:31:58;;;;;;;13.98;2.13;;;;;;;;;;4975260;28;20076;-68
2023/12/30 00:34:27;;;;;;;13.45;1.65;;;;;;;;;;4991328;28;20057;-67
2023/12/30 00:36:54;;;;;;;10.63;0.98;;;;;;;;;;4986435;28;20533;-68
2023/12/30 00:39:21;;;;;;;6.75;1.10;;;;;;;;;;4989396;28;20047;-68
2023/12/30 00:41:48;;;;;;;13.43;1.05;;;;;;;;;;4976668;28;20673;-67
2023/12/30 00:44:16;;;;;;;12.80;1.00;;;;;;;;;;4989758;28;20149;-68
2023/12/30 00:46:43;;;;;;;12.95;1.45;;;;;;;;;;4988549;28;20050;-69
2023/12/30 00:49:11;;;;;;;11.70;1.05;;;;;;;;;;4989689;28;20097;-67
2023/12/30 00:51:40;;;;;;;9.68;1.52;;;;;;;;;;4974388;28;20073;-68
2023/12/30 00:54:07;;;;;;;9.48;1.13;;;;;;;;;;4989912;28;20070;-67
2023/12/30 00:56:35;;;;;;;18.92;2.42;;;;;;;;;;4991402;28;20046;-67
2023/12/30 00:59:03;;;;;;;10.90;1.10;;;;;;;;;;4988208;28;20053;-67
2023/12/30 01:01:30;;;;;;;11.88;1.13;;;;;;;;;;4974758;28;20379;-68
2023/12/30 01:03:57;;;;;;;11.95;1.48;;;;;;;;;;4987079;28;20053;-67
2023/12/30 01:06:24;;;;;;;13.95;1.60;;;;;;;;;;4971116;28;20054;-67
2023/12/30 01:08:53;;;;;;;12.00;2.13;;;;;;;;;;4973972;28;20073;-68
2023/12/30 01:11:20;;;;;;;12.20;1.67;;;;;;;;;;4989537;28;20073;-68
2023/12/30 01:13:47;;;;;;;16.05;2.25;;;;;;;;;;4994422;28;20046;-67
2023/12/30 01:16:15;;;;;;;6.28;1.27;;;;;;;;;;4987310;28;20409;-67
2023/12/30 01:18:42;;;;;;;11.60;2.13;;;;;;;;;;4974200;28;20061;-67
2023/12/30 01:21:09;;;;;;;15.15;1.33;;;;;;;;;;4989265;28;20498;-68
2023/12/30 01:23:37;;;;;;;21.10;2.58;;;;;;;;;;4991038;28;20057;-68
2023/12/30 01:26:05;;;;;;;12.82;2.15;;;;;;;;;;4973110;28;20062;-67
2023/12/30 01:28:34;;;;;;;10.90;1.42;;;;;;;;;;4992449;28;20047;-68
2023/12/30 01:31:01;;;;;;;11.57;2.40;;;;;;;;;;4990401;28;20066;-67
2023/12/30 01:33:28;;;;;;;16.90;1.67;;;;;;;;;;4992269;28;20054;-67
2023/12/30 01:35:55;;;;;;;13.95;1.73;;;;;;;;;;4973535;28;20405;-67
2023/12/30 01:38:23;;;;;;;13.77;2.42;;;;;;;;;;4974215;28;20043;-68
2023/12/30 01:40:50;;;;;;;13.25;1.73;;;;;;;;;;4991270;28;20062;-68
2023/12/30 01:43:26;;;;;;;11.43;1.83;;;;;;;;;;4983702;28;20050;-67
2023/12/30 01:45:54;;;;;;;17.67;1.50;;;;;;;;;;4985480;28;20505;-67
2023/12/30 01:48:21;;;;;;;15.98;1.58;;;;;;;;;;4973512;28;20054;-68
2023/12/30 01:50:49;;;;;;;16.15;1.50;;;;;;;;;;4972797;28;20057;-68
2023/12/30 01:53:17;;;;;;;9.93;1.55;;;;;;;;;;4990389;28;20054;-68
2023/12/30 01:55:45;;;;;;;11.25;1.55;;;;;;;;;;4983481;28;20042;-67
2023/12/30 01:58:13;;;;;;;18.08;2.22;;;;;;;;;;4986699;28;20379;-67
2023/12/30 02:00:42;;;;;;;15.73;1.65;;;;;;;;;;4988933;28;20064;-67
2023/12/30 02:03:09;;;;;;;14.25;1.52;;;;;;;;;;4965446;28;20061;-68
2023/12/30 02:05:37;;;;;;;12.13;1.80;;;;;;;;;;4972637;28;20068;-68
2023/12/30 02:08:05;;;;;;;12.65;1.65;;;;;;;;;;4988296;28;20146;-68
2023/12/30 02:10:32;;;;;;;10.65;1.33;;;;;;;;;;4988745;28;20042;-67
2023/12/30 02:12:59;;;;;;;15.50;1.40;;;;;;;;;;4986486;28;20462;-67
2023/12/30 02:15:27;;;;;;;14.85;2.10;;;;;;;;;;4988313;28;20149;-67
2023/12/30 02:17:56;;;;;;;11.18;1.13;;;;;;;;;;4990970;28;20053;-68
2023/12/30 02:20:24;;;;;;;18.25;2.17;;;;;;;;;;4969028;28;20148;-67
2023/12/30 02:22:53;;;;;;;10.80;1.60;;;;;;;;;;4985605;28;20053;-66
2023/12/30 02:25:20;;;;;;;10.15;1.50;;;;;;;;;;4988343;28;20062;-68
2023/12/30 02:27:48;;;;;;;14.30;1.50;;;;;;;;;;4974013;28;20054;-68
2023/12/30 02:30:15;;;;;;;15.35;1.65;;;;;;;;;;4987253;28;20061;-69
2023/12/30 02:32:42;;;;;;;6.97;1.35;;;;;;;;;;4987138;28;20038;-67
2023/12/30 02:35:10;;;;;;;10.00;1.30;;;;;;;;;;4985406;28;20148;-67
2023/12/30 02:37:37;;;;;;;10.45;1.35;;;;;;;;;;4989328;28;20486;-68
2023/12/30 02:40:06;;;;;;;14.77;1.88;;;;;;;;;;4969925;28;20061;-67
2023/12/30 02:42:33;;;;;;;8.48;1.25;;;;;;;;;;4986675;28;20055;-67
2023/12/30 02:45:01;;;;;;;13.52;1.95;;;;;;;;;;4986635;28;20050;-67
2023/12/30 02:47:28;;;;;;;11.20;1.38;;;;;;;;;;4987879;28;20120;-67
2023/12/30 02:49:59;;;;;;;15.00;1.88;;;;;;;;;;4966316;28;20046;-67
2023/12/30 02:52:26;;;;;;;15.63;1.20;;;;;;;;;;4969543;28;20054;-68
2023/12/30 02:54:54;;;;;;;14.10;2.00;;;;;;;;;;4988229;28;20046;-67
2023/12/30 02:57:23;;;;;;;10.35;1.27;;;;;;;;;;4971151;28;20050;-67
2023/12/30 02:59:50;;;;;;;17.88;1.63;;;;;;;;;;4972580;28;20104;-69
2023/12/30 03:02:17;;;;;;;18.75;1.67;;;;;;;;;;4963248;28;20058;-67
2023/12/30 03:04:44;;;;;;;13.63;1.23;;;;;;;;;;4989743;28;20053;-68
2023/12/30 03:07:12;;;;;;;15.25;1.75;;;;;;;;;;4988044;28;20131;-68
2023/12/30 03:09:39;;;;;;;11.27;2.13;;;;;;;;;;4989205;28;20498;-67
2023/12/30 03:12:08;;;;;;;14.02;2.35;;;;;;;;;;4988231;28;20049;-67
2023/12/30 03:14:36;;;;;;;10.82;1.33;;;;;;;;;;4971812;28;20069;-69
2023/12/30 03:17:04;;;;;;;10.48;1.48;;;;;;;;;;4987917;28;20141;-68
2023/12/30 03:19:31;;;;;;;11.38;1.38;;;;;;;;;;4987719;28;20046;-68
2023/12/30 03:21:58;;;;;;;9.98;2.03;;;;;;;;;;4988596;28;20485;-69
2023/12/30 03:24:26;;;;;;;11.68;1.70;;;;;;;;;;4985308;28;20057;-68
2023/12/30 03:26:53;;;;;;;17.55;1.80;;;;;;;;;;4985634;28;20092;-68
2023/12/30 03:29:21;;;;;;;11.85;1.50;;;;;;;;;;4982005;28;20069;-68
2023/12/30 03:31:49;;;;;;;16.13;2.03;;;;;;;;;;4976562;28;20398;-69
2023/12/30 03:34:16;;;;;;;8.60;1.27;;;;;;;;;;4975485;28;20050;-69
2023/12/30 03:36:44;;;;;;;15.57;1.45;;;;;;;;;;4987213;28;20081;-70
2023/12/30 03:39:11;;;;;;;13.00;1.50;;;;;;;;;;4981549;28;20124;-68
2023/12/30 03:41:38;;;;;;;10.00;1.55;;;;;;;;;;4986607;28;20962;-68
2023/12/30 03:44:05;;;;;;;16.00;1.90;;;;;;;;;;4987571;28;20050;-69
2023/12/30 03:46:33;;;;;;;20.90;2.33;;;;;;;;;;4984847;28;20055;-69
2023/12/30 03:49:01;;;;;;;16.75;2.53;;;;;;;;;;4988990;28;20053;-69
2023/12/30 03:51:28;;;;;;;16.00;1.73;;;;;;;;;;4970100;28;20050;-69
2023/12/30 03:53:56;;;;;;;16.58;2.10;;;;;;;;;;4983193;28;20047;-68
2023/12/30 03:56:23;;;;;;;13.98;1.70;;;;;;;;;;4986951;28;20051;-69
2023/12/30 03:58:50;;;;;;;14.77;1.73;;;;;;;;;;4987542;28;20069;-69
2023/12/30 04:01:18;;;;;;;11.50;1.67;;;;;;;;;;4988484;28;20078;-69
2023/12/30 04:03:45;;;;;;;15.27;1.45;;;;;;;;;;4986225;28;20042;-68
2023/12/30 04:06:20;;;;;;;20.23;1.73;;;;;;;;;;4988636;28;20054;-69
2023/12/30 04:08:47;;;;;;;14.25;1.92;;;;;;;;;;4981322;28;20050;-69
2023/12/30 04:11:14;;;;;;;16.58;1.52;;;;;;;;;;4972461;28;20058;-69
2023/12/30 04:13:41;;;;;;;14.63;1.52;;;;;;;;;;4988681;28;20084;-69
2023/12/30 04:16:09;;;;;;;10.23;1.45;;;;;;;;;;4987968;28;20088;-69
2023/12/30 04:18:36;;;;;;;16.17;2.25;;;;;;;;;;4987904;28;20054;-69
2023/12/30 04:21:03;;;;;;;18.10;2.47;;;;;;;;;;4988233;28;20073;-69
2023/12/30 04:23:32;;;;;;;11.57;1.33;;;;;;;;;;4988577;28;20428;-73
2023/12/30 04:25:59;;;;;;;18.48;2.97;;;;;;;;;;4991583;28;20500;-72
2023/12/30 04:28:26;;;;;;;12.80;1.30;;;;;;;;;;4987823;28;20042;-72
2023/12/30 04:30:53;;;;;;;15.75;1.73;;;;;;;;;;4990082;28;20050;-73
2023/12/30 04:33:21;;;;;;;12.57;1.58;;;;;;;;;;4991241;28;20059;-73
2023/12/30 04:35:48;;;;;;;16.23;2.88;;;;;;;;;;4990683;28;20049;-72
2023/12/30 04:38:17;;;;;;;17.65;1.42;;;;;;;;;;4990450;28;20048;-73
2023/12/30 04:40:47;;;;;;;18.67;1.58;;;;;;;;;;4991110;28;20104;-72
2023/12/30 04:43:14;;;;;;;15.00;2.08;;;;;;;;;;4990810;28;20058;-72
2023/12/30 04:45:41;;;;;;;17.95;1.88;;;;;;;;;;4990210;28;20450;-71
2023/12/30 04:48:09;;;;;;;17.17;1.92;;;;;;;;;;4991196;28;20053;-72
2023/12/30 04:50:36;;;;;;;14.25;1.58;;;;;;;;;;4987936;28;20054;-73
2023/12/30 04:53:03;;;;;;;10.35;1.23;;;;;;;;;;4991417;28;20046;-72
2023/12/30 04:55:31;;;;;;;18.35;1.52;;;;;;;;;;4986833;28;20054;-72
2023/12/30 04:57:59;;;;;;;18.58;2.35;;;;;;;;;;4985184;28;20487;-71
2023/12/30 05:00:27;;;;;;;16.20;2.65;;;;;;;;;;4985844;28;20142;-71
2023/12/30 05:02:54;;;;;;;17.17;1.95;;;;;;;;;;4985281;28;20054;-72
2023/12/30 05:05:21;;;;;;;15.15;1.52;;;;;;;;;;4990342;28;20047;-72
2023/12/30 05:07:49;;;;;;;16.13;1.65;;;;;;;;;;4989522;28;20441;-72
2023/12/30 05:10:16;;;;;;;16.27;2.42;;;;;;;;;;4983044;28;20054;-71
2023/12/30 05:12:43;;;;;;;11.90;1.80;;;;;;;;;;4989861;28;20049;-71
2023/12/30 05:15:14;;;;;;;19.52;1.95;;;;;;;;;;4990399;28;20062;-72
2023/12/30 05:17:41;;;;;;;9.75;1.67;;;;;;;;;;4968554;28;20062;-72
2023/12/30 05:20:10;;;;;;;15.30;1.60;;;;;;;;;;4989271;28;20050;-72
2023/12/30 05:22:37;;;;;;;21.10;1.95;;;;;;;;;;4990364;28;20046;-72
2023/12/30 05:25:05;;;;;;;15.40;1.27;;;;;;;;;;4990369;28;20053;-73
2023/12/30 05:27:33;;;;;;;12.07;1.27;;;;;;;;;;4988330;28;20085;-72
2023/12/30 05:30:00;;;;;;;19.85;2.03;;;;;;;;;;4990723;28;20049;-73
2023/12/30 05:32:29;;;;;;;14.43;1.70;;;;;;;;;;4975046;28;20078;-71
2023/12/30 05:34:56;;;;;;;13.50;2.25;;;;;;;;;;4985206;28;20149;-68
2023/12/30 05:37:23;;;;;;;15.80;1.90;;;;;;;;;;4965325;28;20058;-68
2023/12/30 05:39:50;;;;;;;15.90;1.65;;;;;;;;;;4974799;28;20057;-68
2023/12/30 05:42:18;;;;;;;9.48;1.40;;;;;;;;;;4986328;28;20073;-68
2023/12/30 05:44:45;;;;;;;11.25;1.42;;;;;;;;;;4966239;28;20050;-67
2023/12/30 05:47:12;;;;;;;12.35;1.55;;;;;;;;;;4991677;28;20054;-68
2023/12/30 05:49:41;;;;;;;18.33;1.83;;;;;;;;;;4983004;28;20046;-67
2023/12/30 05:52:08;;;;;;;11.05;1.85;;;;;;;;;;4992415;28;20066;-69
2023/12/30 05:54:36;;;;;;;14.15;1.48;;;;;;;;;;4991571;28;20061;-67
2023/12/30 05:57:03;;;;;;;12.95;1.42;;;;;;;;;;4991300;28;20046;-68
2023/12/30 05:59:30;;;;;;;15.52;1.75;;;;;;;;;;4991231;28;20050;-68
2023/12/30 06:01:58;;;;;;;11.70;1.38;;;;;;;;;;4992165;28;20508;-67
2023/12/30 06:04:26;;;;;;;9.45;1.52;;;;;;;;;;4979287;28;20101;-69
2023/12/30 06:06:54;;;;;;;14.43;1.50;;;;;;;;;;4977793;28;20053;-67
2023/12/30 06:09:22;;;;;;;13.15;1.63;;;;;;;;;;4974322;28;20067;-67
2023/12/30 06:11:49;;;;;;;9.88;1.88;;;;;;;;;;4988977;28;20077;-67
2023/12/30 06:14:16;;;;;;;10.85;1.40;;;;;;;;;;4973541;28;20057;-68
2023/12/30 06:16:44;;;;;;;10.25;1.70;;;;;;;;;;4972605;28;20062;-67
2023/12/30 06:19:13;;;;;;;11.25;1.85;;;;;;;;;;4973768;28;20054;-67
2023/12/30 06:21:40;;;;;;;14.95;1.70;;;;;;;;;;4990899;28;20097;-68
2023/12/30 06:24:09;;;;;;;15.20;1.58;;;;;;;;;;4990691;28;20050;-67
2023/12/30 06:26:38;;;;;;;14.27;2.00;;;;;;;;;;4974772;28;20452;-68
2023/12/30 06:29:05;;;;;;;11.95;1.27;;;;;;;;;;4979844;28;20105;-68
2023/12/30 06:31:32;;;;;;;15.65;1.67;;;;;;;;;;4964993;28;20493;-67
2023/12/30 06:34:00;;;;;;;14.73;1.20;;;;;;;;;;4973587;28;20139;-67
2023/12/30 06:36:27;;;;;;;14.00;1.63;;;;;;;;;;4983249;28;20046;-67
2023/12/30 06:38:54;;;;;;;11.10;1.52;;;;;;;;;;4975397;28;21019;-67
2023/12/30 06:41:23;;;;;;;12.98;1.38;;;;;;;;;;4971873;28;20057;-68
2023/12/30 06:43:51;;;;;;;15.95;1.85;;;;;;;;;;4990067;28;20048;-72
2023/12/30 06:46:20;;;;;;;10.65;1.48;;;;;;;;;;4987948;28;20102;-72
2023/12/30 06:48:47;;;;;;;16.15;1.75;;;;;;;;;;4988599;28;20124;-72
2023/12/30 06:51:15;;;;;;;10.50;1.60;;;;;;;;;;4972652;28;20066;-72
2023/12/30 06:53:42;;;;;;;10.25;1.42;;;;;;;;;;4987129;28;20046;-72
2023/12/30 06:56:09;;;;;;;16.45;1.73;;;;;;;;;;4986886;28;20081;-72
2023/12/30 06:58:38;;;;;;;15.82;1.98;;;;;;;;;;4988831;28;20061;-72
2023/12/30 07:01:05;;;;;;;15.15;1.42;;;;;;;;;;4988769;28;20050;-72
2023/12/30 07:03:33;;;;;;;13.18;1.60;;;;;;;;;;4987820;28;20058;-72
2023/12/30 07:06:00;;;;;;;11.65;1.17;;;;;;;;;;4986502;28;20046;-72
2023/12/30 07:08:27;;;;;;;10.02;1.40;;;;;;;;;;4971020;28;20085;-73
2023/12/30 07:10:55;;;;;;;16.08;1.88;;;;;;;;;;4982124;28;20193;-73
2023/12/30 07:13:22;;;;;;;10.70;2.08;;;;;;;;;;4971729;28;20560;-72
2023/12/30 07:15:52;;;;;;;12.18;1.40;;;;;;;;;;4987484;28;20061;-72
2023/12/30 07:18:19;;;;;;;10.63;1.35;;;;;;;;;;4988501;28;20054;-72
2023/12/30 07:20:46;;;;;;;15.32;1.70;;;;;;;;;;4988997;28;21211;-72
2023/12/30 07:23:14;;;;;;;13.60;2.25;;;;;;;;;;4987949;28;20058;-72
2023/12/30 07:25:41;;;;;;;11.85;1.75;;;;;;;;;;4983607;28;20047;-72
2023/12/30 07:28:08;;;;;;;10.55;1.45;;;;;;;;;;4980337;28;20085;-72
2023/12/30 07:30:35;;;;;;;13.57;1.92;;;;;;;;;;4985056;28;20050;-72
2023/12/30 07:33:04;;;;;;;7.45;1.20;;;;;;;;;;4985470;28;20185;-73
2023/12/30 07:35:31;;;;;;;19.05;1.75;;;;;;;;;;4986364;28;20049;-72
2023/12/30 07:37:59;;;;;;;14.02;1.17;;;;;;;;;;4984889;28;20678;-72
2023/12/30 07:40:26;;;;;;;15.25;1.98;;;;;;;;;;4986645;28;20050;-71
2023/12/30 07:42:54;;;;;;;12.10;1.50;;;;;;;;;;4981912;28;20414;-72
2023/12/30 07:45:21;;;;;;;10.63;1.17;;;;;;;;;;4985983;28;20057;-71
2023/12/30 07:47:48;;;;;;;12.13;1.90;;;;;;;;;;4987407;28;20069;-72
2023/12/30 07:50:17;;;;;;;18.55;1.67;;;;;;;;;;4985556;28;20054;-72
2023/12/30 07:52:44;;;;;;;10.93;1.25;;;;;;;;;;4979045;28;20514;-69
2023/12/30 07:55:11;;;;;;;11.95;1.75;;;;;;;;;;4983538;28;20051;-71
2023/12/30 07:57:39;;;;;;;14.10;1.38;;;;;;;;;;4971138;28;20050;-71
2023/12/30 08:00:07;;;;;;;13.93;1.10;;;;;;;;;;4987941;28;20043;-69
2023/12/30 08:02:34;;;;;;;16.55;1.92;;;;;;;;;;4987752;28;20042;-72
2023/12/30 08:05:01;;;;;;;6.75;1.30;;;;;;;;;;4989043;28;20050;-73
2023/12/30 08:07:31;;;;;;;9.07;1.58;;;;;;;;;;4985038;28;20482;-72
2023/12/30 08:09:58;;;;;;;16.20;1.60;;;;;;;;;;4974001;28;20093;-73
2023/12/30 08:12:25;;;;;;;9.52;1.40;;;;;;;;;;4988612;28;20077;-73
2023/12/30 08:14:53;;;;;;;18.27;2.22;;;;;;;;;;4989735;28;20066;-74
2023/12/30 08:17:20;;;;;;;10.40;1.63;;;;;;;;;;4990593;28;20128;-74
2023/12/30 08:19:47;;;;;;;10.23;1.65;;;;;;;;;;4989396;28;20054;-74
2023/12/30 08:22:15;;;;;;;13.82;1.67;;;;;;;;;;4986362;28;20046;-70
2023/12/30 08:24:43;;;;;;;17.13;2.15;;;;;;;;;;4986180;28;20406;-71
2023/12/30 08:27:11;;;;;;;11.95;1.13;;;;;;;;;;4986952;28;20073;-69
2023/12/30 08:29:38;;;;;;;14.73;1.88;;;;;;;;;;4989848;28;20049;-69
2023/12/30 08:32:06;;;;;;;15.85;2.28;;;;;;;;;;4988577;28;20050;-71
2023/12/30 08:34:34;;;;;;;13.90;1.77;;;;;;;;;;4986226;28;20054;-71
2023/12/30 08:37:07;;;;;;;11.15;1.65;;;;;;;;;;4986788;28;20521;-70
2023/12/30 08:39:35;;;;;;;13.55;1.55;;;;;;;;;;4987564;28;20061;-70
2023/12/30 08:42:05;;;;;;;10.07;1.65;;;;;;;;;;4984842;28;20279;-71
2023/12/30 08:44:33;;;;;;;13.55;1.55;;;;;;;;;;4979353;28;20498;-70
2023/12/30 08:47:00;;;;;;;12.45;1.70;;;;;;;;;;4982027;28;20125;-70
2023/12/30 08:49:27;;;;;;;10.70;1.20;;;;;;;;;;4982348;28;20046;-70
2023/12/30 08:51:54;;;;;;;15.43;2.58;;;;;;;;;;4991404;28;20478;-71
2023/12/30 08:54:21;;;;;;;11.70;1.65;;;;;;;;;;4990604;28;20042;-70
2023/12/30 08:56:50;;;;;;;10.63;1.08;;;;;;;;;;4990504;28;20679;-70
2023/12/30 08:59:19;;;;;;;6.97;1.10;;;;;;;;;;4987563;28;20057;-70
2023/12/30 09:01:46;;;;;;;11.88;1.42;;;;;;;;;;4984807;28;20054;-71
2023/12/30 09:04:13;;;;;;;13.02;1.38;;;;;;;;;;4978547;28;20055;-68
2023/12/30 09:06:41;;;;;;;12.82;1.40;;;;;;;;;;4987385;28;20078;-68
2023/12/30 09:09:08;;;;;;;11.85;1.48;;;;;;;;;;4988716;28;20053;-68
2023/12/30 09:11:37;;;;;;;12.30;1.48;;;;;;;;;;4981310;28;20061;-68
2023/12/30 09:14:05;;;;;;;15.18;1.88;;;;;;;;;;4979965;28;20126;-68
2023/12/30 09:16:34;;;;;;;12.70;1.65;;;;;;;;;;4975968;28;20050;-68
2023/12/30 09:19:01;;;;;;;13.75;1.33;;;;;;;;;;4975751;28;20062;-67
2023/12/30 09:21:29;;;;;;;9.32;1.15;;;;;;;;;;4987743;28;20137;-68
2023/12/30 09:23:56;;;;;;;8.38;1.42;;;;;;;;;;4989976;28;20132;-69
2023/12/30 09:26:24;;;;;;;14.55;1.20;;;;;;;;;;4990037;28;20383;-68
2023/12/30 09:28:52;;;;;;;13.20;1.88;;;;;;;;;;4963642;28;20509;-68
2023/12/30 09:31:20;;;;;;;14.95;1.40;;;;;;;;;;4980932;28;20086;-68
2023/12/30 09:33:49;;;;;;;14.63;2.22;;;;;;;;;;4984578;28;20046;-68
2023/12/30 09:36:17;;;;;;;9.90;1.10;;;;;;;;;;4984211;28;20101;-68
2023/12/30 09:38:45;;;;;;;14.85;2.22;;;;;;;;;;4959222;28;20054;-68
2023/12/30 09:41:13;;;;;;;13.00;1.38;;;;;;;;;;4981629;28;20052;-68
2023/12/30 09:43:42;;;;;;;15.30;1.67;;;;;;;;;;4984513;28;20510;-68
2023/12/30 09:46:11;;;;;;;9.93;1.52;;;;;;;;;;4985474;28;20054;-68
2023/12/30 09:48:38;;;;;;;9.48;1.70;;;;;;;;;;4984409;28;20055;-68
2023/12/30 09:51:07;;;;;;;11.85;1.13;;;;;;;;;;4978233;28;20387;-68
2023/12/30 09:53:34;;;;;;;7.00;1.00;;;;;;;;;;4979156;28;20054;-68
2023/12/30 09:56:02;;;;;;;13.30;1.58;;;;;;;;;;4978185;28;20146;-68
2023/12/30 09:58:29;;;;;;;11.93;1.42;;;;;;;;;;4977224;28;20070;-68
2023/12/30 10:00:57;;;;;;;6.43;0.93;;;;;;;;;;4978221;28;20042;-68
2023/12/30 10:03:25;;;;;;;9.90;1.45;;;;;;;;;;4983822;28;20050;-68
2023/12/30 10:05:54;;;;;;;14.98;1.55;;;;;;;;;;4964022;28;20137;-68
2023/12/30 10:08:23;;;;;;;10.63;1.20;;;;;;;;;;4982444;28;20054;-68
2023/12/30 10:10:51;;;;;;;9.93;1.17;;;;;;;;;;4981818;28;20122;-68
2023/12/30 10:13:22;;;;;;;12.55;1.08;;;;;;;;;;4978574;28;20141;-68
2023/12/30 10:15:50;;;;;;;12.15;1.73;;;;;;;;;;4975548;28;20502;-68
2023/12/30 10:18:17;;;;;;;9.88;1.35;;;;;;;;;;4983993;28;20129;-68
2023/12/30 10:20:45;;;;;;;9.57;1.60;;;;;;;;;;4984040;28;20050;-69
2023/12/30 10:23:12;;;;;;;7.38;0.85;;;;;;;;;;4968373;28;20058;-70
2023/12/30 10:25:41;;;;;;;9.10;1.15;;;;;;;;;;4970676;28;20088;-71
2023/12/30 10:28:08;;;;;;;11.70;1.40;;;;;;;;;;4981089;28;20058;-70
2023/12/30 10:30:36;;;;;;;9.93;1.27;;;;;;;;;;4984419;28;20038;-70
2023/12/30 10:33:07;;;;;;;9.05;1.20;;;;;;;;;;4986917;28;20050;-71
2023/12/30 10:35:34;;;;;;;6.80;1.30;;;;;;;;;;4969986;28;20461;-71
2023/12/30 10:38:03;;;;;;;7.60;1.08;;;;;;;;;;4988260;28;20561;-71
2023/12/30 10:40:31;;;;;;;12.25;1.30;;;;;;;;;;4988495;28;20133;-70
2023/12/30 10:42:59;;;;;;;11.00;1.20;;;;;;;;;;4986987;28;20058;-70
2023/12/30 10:45:26;;;;;;;8.20;1.30;;;;;;;;;;4988530;28;20049;-70
2023/12/30 10:47:55;;;;;;;14.05;1.65;;;;;;;;;;4985919;28;20122;-70
2023/12/30 10:50:26;;;;;;;10.85;1.70;;;;;;;;;;4989317;28;20073;-70
2023/12/30 10:52:57;;;;;;;10.30;1.10;;;;;;;;;;4986620;28;20047;-71
2023/12/30 10:55:26;;;;;;;10.73;1.42;;;;;;;;;;4984560;28;20490;-70
2023/12/30 10:58:00;;;;;;;14.27;1.30;;;;;;;;;;4985554;28;20043;-71
2023/12/30 11:00:30;;;;;;;15.93;1.27;;;;;;;;;;4984459;28;20153;-70
2023/12/30 11:02:58;;;;;;;11.77;1.75;;;;;;;;;;4988846;28;20050;-70
2023/12/30 11:05:28;;;;;;;12.45;1.30;;;;;;;;;;4985724;28;20056;-70
2023/12/30 11:07:56;;;;;;;10.95;1.45;;;;;;;;;;4987821;28;20042;-70
2023/12/30 11:10:23;;;;;;;13.43;1.15;;;;;;;;;;4987707;28;20548;-70
2023/12/30 11:12:53;;;;;;;11.10;1.20;;;;;;;;;;4988608;28;20493;-71
2023/12/30 11:15:23;;;;;;;9.75;1.60;;;;;;;;;;4991826;28;20062;-71
2023/12/30 11:17:52;;;;;;;9.73;1.38;;;;;;;;;;4982764;28;20057;-70
2023/12/30 11:20:24;;;;;;;10.45;1.88;;;;;;;;;;4988257;28;20064;-70
2023/12/30 11:22:51;;;;;;;8.45;1.10;;;;;;;;;;4988152;28;20504;-70
2023/12/30 11:25:19;;;;;;;5.53;1.10;;;;;;;;;;4988524;28;20121;-71
2023/12/30 11:27:48;;;;;;;10.45;1.10;;;;;;;;;;4985631;28;20504;-71
2023/12/30 11:30:16;;;;;;;7.40;1.08;;;;;;;;;;4988303;28;20043;-71
2023/12/30 11:32:45;;;;;;;15.13;2.40;;;;;;;;;;4988992;28;20046;-70
2023/12/30 11:35:15;;;;;;;9.38;0.98;;;;;;;;;;4993626;28;20050;-68
2023/12/30 11:37:45;;;;;;;4.93;0.90;;;;;;;;;;4990823;28;20228;-67
2023/12/30 11:40:15;;;;;;;10.25;1.10;;;;;;;;;;4976699;28;20055;-67
2023/12/30 11:42:42;;;;;;;9.60;1.15;;;;;;;;;;4986684;28;20362;-67
2023/12/30 11:45:10;;;;;;;9.70;1.20;;;;;;;;;;4991880;28;20054;-67
2023/12/30 11:47:38;;;;;;;8.43;0.95;;;;;;;;;;4991025;28;20053;-67
2023/12/30 11:50:07;;;;;;;12.82;1.17;;;;;;;;;;4992522;28;20042;-67
2023/12/30 11:52:36;;;;;;;8.20;1.00;;;;;;;;;;4988352;28;20060;-66
2023/12/30 11:55:04;;;;;;;10.52;1.50;;;;;;;;;;4992032;28;20121;-67
2023/12/30 11:57:33;;;;;;;10.95;1.10;;;;;;;;;;4990961;28;20441;-67
2023/12/30 12:00:01;;;;;;;9.18;1.30;;;;;;;;;;4987867;28;20097;-67
2023/12/30 12:02:29;;;;;;;11.80;1.17;;;;;;;;;;4974830;28;20460;-67
2023/12/30 12:04:56;;;;;;;7.90;0.85;;;;;;;;;;4990585;28;20058;-67
2023/12/30 12:07:23;;;;;;;9.60;1.00;;;;;;;;;;4987043;28;20050;-67
2023/12/30 12:09:52;;;;;;;7.25;1.00;;;;;;;;;;4991547;28;20477;-67
2023/12/30 12:12:22;;;;;;;6.47;1.23;;;;;;;;;;4994093;28;20062;-67
2023/12/30 12:14:50;;;;;;;10.70;1.02;;;;;;;;;;4995879;28;20057;-67
2023/12/30 12:17:19;;;;;;;7.18;1.33;;;;;;;;;;4992007;28;20053;-68
2023/12/30 12:19:47;;;;;;;10.18;0.98;;;;;;;;;;4988803;28;20605;-67
2023/12/30 12:22:15;;;;;;;9.40;1.27;;;;;;;;;;4991525;28;20477;-67
2023/12/30 12:24:43;;;;;;;4.57;0.80;;;;;;;;;;4989931;28;20125;-68
2023/12/30 12:27:12;;;;;;;7.68;0.85;;;;;;;;;;4992261;28;20705;-67
2023/12/30 12:29:46;;;;;;;10.10;2.03;;;;;;;;;;4991710;28;20055;-67
2023/12/30 12:32:15;;;;;;;9.85;1.20;;;;;;;;;;4986781;28;20050;-68
2023/12/30 12:34:43;;;;;;;11.77;1.20;;;;;;;;;;4989443;28;20055;-66
2023/12/30 12:37:12;;;;;;;11.52;1.65;;;;;;;;;;4988993;28;20058;-67
2023/12/30 12:39:39;;;;;;;10.30;0.95;;;;;;;;;;4991078;28;20050;-67
2023/12/30 12:42:07;;;;;;;11.40;1.20;;;;;;;;;;4984522;28;20484;-67
2023/12/30 12:44:35;;;;;;;10.48;1.58;;;;;;;;;;4993245;28;20054;-66
2023/12/30 12:47:02;;;;;;;7.95;1.00;;;;;;;;;;4967257;28;20051;-67
2023/12/30 12:49:30;;;;;;;10.23;1.55;;;;;;;;;;4987025;28;20050;-66
2023/12/30 12:51:57;;;;;;;11.55;1.10;;;;;;;;;;4987474;28;20042;-67
2023/12/30 12:54:24;;;;;;;9.05;1.13;;;;;;;;;;4987155;28;20489;-67
2023/12/30 12:56:51;;;;;;;16.88;2.25;;;;;;;;;;4989715;28;20054;-66
2023/12/30 12:59:19;;;;;;;10.00;1.00;;;;;;;;;;4985044;28;20054;-67
2023/12/30 13:01:47;;;;;;;10.77;1.20;;;;;;;;;;4991414;28;20121;-66
2023/12/30 13:04:15;;;;;;;12.15;1.58;;;;;;;;;;4989967;28;20042;-66
2023/12/30 13:06:42;;;;;;;8.23;1.55;;;;;;;;;;4994914;28;20041;-66
2023/12/30 13:09:30;;;;;;;7.55;0.98;;;;;;;;;;4993674;28;20137;-67
2023/12/30 13:11:59;;;;;;;10.60;1.52;;;;;;;;;;4989015;28;20426;-67
2023/12/30 13:14:27;;;;;;;6.20;1.02;;;;;;;;;;4990382;28;20058;-67
2023/12/30 13:16:56;;;;;;;9.00;1.30;;;;;;;;;;4989688;28;20046;-66
2023/12/30 13:19:23;;;;;;;15.27;2.42;;;;;;;;;;4990209;28;20050;-67
2023/12/30 13:21:52;;;;;;;10.38;1.58;;;;;;;;;;4991353;28;20069;-66
2023/12/30 13:24:19;;;;;;;10.18;1.25;;;;;;;;;;4971181;28;20080;-68
2023/12/30 13:26:46;;;;;;;8.45;1.38;;;;;;;;;;4990249;28;20058;-67
2023/12/30 13:29:15;;;;;;;14.65;1.45;;;;;;;;;;4986511;28;20065;-67
2023/12/30 13:31:44;;;;;;;12.52;1.83;;;;;;;;;;4982399;28;20054;-67
2023/12/30 13:34:14;;;;;;;7.85;1.05;;;;;;;;;;4988703;28;20065;-66
2023/12/30 13:36:41;;;;;;;10.52;1.45;;;;;;;;;;4966156;28;20409;-68
2023/12/30 13:39:13;;;;;;;7.75;1.70;;;;;;;;;;4985736;28;20073;-67
2023/12/30 13:41:41;;;;;;;5.28;1.00;;;;;;;;;;4984586;28;20046;-69
2023/12/30 13:44:09;;;;;;;9.38;1.10;;;;;;;;;;4986042;28;20058;-68
2023/12/30 13:46:57;;;;;;;9.93;1.13;;;;;;;;;;4984168;28;20049;-68
2023/12/30 13:49:58;;;;;;;12.80;1.73;;;;;;;;;;4986228;28;20050;-68
2023/12/30 13:52:27;;;;;;;13.45;1.73;;;;;;;;;;4987367;28;20393;-68
2023/12/30 13:54:54;;;;;;;7.05;1.63;;;;;;;;;;4966509;28;20066;-67
2023/12/30 13:57:28;;;;;;;12.63;2.00;;;;;;;;;;4983553;28;20054;-67
2023/12/30 13:59:56;;;;;;;7.13;1.30;;;;;;;;;;4986565;28;20177;-68
2023/12/30 14:02:24;;;;;;;12.52;1.58;;;;;;;;;;4989189;28;20054;-68
2023/12/30 14:04:56;;;;;;;11.80;2.50;;;;;;;;;;4967767;28;20095;-68
2023/12/30 14:07:27;;;;;;;12.88;1.73;;;;;;;;;;4984627;28;20050;-68
2023/12/30 14:09:58;;;;;;;10.02;2.20;;;;;;;;;;4966707;28;20522;-67
2023/12/30 14:12:27;;;;;;;12.00;1.60;;;;;;;;;;4983842;28;20097;-68
2023/12/30 14:14:55;;;;;;;14.55;1.83;;;;;;;;;;4984346;28;20058;-67
2023/12/30 14:17:24;;;;;;;12.15;2.58;;;;;;;;;;4988300;28;20141;-67
2023/12/30 14:19:52;;;;;;;22.58;2.08;;;;;;;;;;4983108;28;20054;-67
2023/12/30 14:22:20;;;;;;;18.30;2.80;;;;;;;;;;4985750;28;20059;-67
2023/12/30 14:24:47;;;;;;;25.30;4.20;;;;;;;;;;4971936;28;20145;-66
2023/12/30 14:27:14;;;;;;;15.90;3.03;;;;;;;;;;4986376;28;20050;-68
2023/12/30 14:29:44;;;;;;;13.52;2.47;;;;;;;;;;4986411;28;20057;-67
2023/12/30 14:32:13;;;;;;;16.65;3.55;;;;;;;;;;4985265;28;20505;-67
2023/12/30 14:34:40;;;;;;;15.85;2.00;;;;;;;;;;4985802;28;20422;-67
2023/12/30 14:37:09;;;;;;;17.55;2.88;;;;;;;;;;4970079;28;20334;-69
2023/12/30 14:39:37;;;;;;;16.42;2.58;;;;;;;;;;4989631;28;20050;-67